sensor_id;sensor_type;location;lat;lon;timestamp;pressure;altitude;pressure_sealevel;temperature;humidity
26719;BME280;14326;50.794;6.060;2023-04-02T00:01:23;98847.63;;;7.83;100.00
26719;BME280;14326;50.794;6.060;2023-04-02T00:04:10;98859.06;;;7.79;100.00
26719;BME280;14326;50.794;6.060;2023-04-02T00:06:42;98862.59;;;7.81;100.00
26719;BME280;14326;50.794;6.060;2023-04-02T00:09:58;98866.09;;;7.75;100.00
26719;BME280;14326;50.794;6.060;2023-04-02T00:12:58;98872.25;;;7.74;100.00
26719;BME280;14326;50.794;6.060;2023-04-02T00:15:35;98879.25;;;7.68;100.00
26719;BME280;14326;50.794;6.060;2023-04-02T00:18:08;98873.13;;;7.70;100.00
26719;BME280;14326;50.794;6.060;2023-04-02T00:20:37;98878.41;;;7.72;100.00
26719;BME280;14326;50.794;6.060;2023-04-02T00:23:09;98885.44;;;7.68;100.00
26719;BME280;14326;50.794;6.060;2023-04-02T00:25:44;98882.81;;;7.70;100.00
26719;BME280;14326;50.794;6.060;2023-04-02T00:28:16;98895.16;;;7.69;100.00
26719;BME280;14326;50.794;6.060;2023-04-02T00:30:48;98894.25;;;7.67;100.00
26719;BME280;14326;50.794;6.060;2023-04-02T00:33:19;98904.78;;;7.63;100.00
26719;BME280;14326;50.794;6.060;2023-04-02T00:35:51;98900.34;;;7.59;100.00
26719;BME280;14326;50.794;6.060;2023-04-02T00:38:24;98899.41;;;7.55;100.00
26719;BME280;14326;50.794;6.060;2023-04-02T00:40:58;98916.16;;;7.54;100.00
26719;BME280;14326;50.794;6.060;2023-04-02T00:43:30;98915.22;;;7.46;100.00
26719;BME280;14326;50.794;6.060;2023-04-02T00:46:00;98925.75;;;7.42;100.00
26719;BME280;14326;50.794;6.060;2023-04-02T00:48:35;98926.59;;;7.37;100.00
26719;BME280;14326;50.794;6.060;2023-04-02T00:51:15;98924.78;;;7.33;100.00
26719;BME280;14326;50.794;6.060;2023-04-02T00:53:45;98930.91;;;7.31;100.00
26719;BME280;14326;50.794;6.060;2023-04-02T00:56:21;98930.03;;;7.29;100.00
26719;BME280;14326;50.794;6.060;2023-04-02T00:58:56;98937.91;;;7.23;100.00
26719;BME280;14326;50.794;6.060;2023-04-02T01:01:24;98940.53;;;7.21;100.00
26719;BME280;14326;50.794;6.060;2023-04-02T01:03:55;98936.16;;;7.23;100.00
26719;BME280;14326;50.794;6.060;2023-04-02T01:06:27;98951.09;;;7.18;100.00
26719;BME280;14326;50.794;6.060;2023-04-02T01:09:12;98956.38;;;7.18;100.00
26719;BME280;14326;50.794;6.060;2023-04-02T01:12:04;98953.66;;;7.12;100.00
26719;BME280;14326;50.794;6.060;2023-04-02T01:14:44;98959.81;;;7.11;100.00
26719;BME280;14326;50.794;6.060;2023-04-02T01:17:23;98960.63;;;7.09;100.00
26719;BME280;14326;50.794;6.060;2023-04-02T01:20:07;98970.31;;;7.08;100.00
26719;BME280;14326;50.794;6.060;2023-04-02T01:22:43;98974.81;;;7.15;100.00
26719;BME280;14326;50.794;6.060;2023-04-02T01:25:17;98976.59;;;7.16;100.00
26719;BME280;14326;50.794;6.060;2023-04-02T01:27:51;98973.97;;;7.19;100.00
26719;BME280;14326;50.794;6.060;2023-04-02T01:30:23;98976.63;;;7.19;100.00
26719;BME280;14326;50.794;6.060;2023-04-02T01:32:51;98990.75;;;7.18;100.00
26719;BME280;14326;50.794;6.060;2023-04-02T01:35:21;98982.81;;;7.18;100.00
26719;BME280;14326;50.794;6.060;2023-04-02T01:37:57;98989.91;;;7.22;100.00
26719;BME280;14326;50.794;6.060;2023-04-02T01:40:42;99000.44;;;7.19;100.00
26719;BME280;14326;50.794;6.060;2023-04-02T01:43:15;98998.56;;;7.11;100.00
26719;BME280;14326;50.794;6.060;2023-04-02T01:45:49;99002.13;;;7.14;100.00
26719;BME280;14326;50.794;6.060;2023-04-02T01:48:32;99004.69;;;7.05;100.00
26719;BME280;14326;50.794;6.060;2023-04-02T01:51:00;99008.13;;;7.01;100.00
26719;BME280;14326;50.794;6.060;2023-04-02T01:53:31;99014.31;;;7.00;100.00
26719;BME280;14326;50.794;6.060;2023-04-02T01:56:16;99028.41;;;7.02;100.00
26719;BME280;14326;50.794;6.060;2023-04-02T01:58:48;99030.09;;;6.94;100.00
26719;BME280;14326;50.794;6.060;2023-04-02T02:01:18;99037.09;;;6.92;100.00
26719;BME280;14326;50.794;6.060;2023-04-02T02:03:54;99038.00;;;6.94;100.00
26719;BME280;14326;50.794;6.060;2023-04-02T02:06:24;99041.53;;;6.96;100.00
26719;BME280;14326;50.794;6.060;2023-04-02T02:08:58;99051.25;;;6.97;100.00
26719;BME280;14326;50.794;6.060;2023-04-02T02:11:32;99057.41;;;6.96;100.00
26719;BME280;14326;50.794;6.060;2023-04-02T02:14:11;99057.34;;;6.91;100.00
26719;BME280;14326;50.794;6.060;2023-04-02T02:16:41;99055.47;;;6.83;100.00
26719;BME280;14326;50.794;6.060;2023-04-02T02:19:24;99073.03;;;6.79;100.00
26719;BME280;14326;50.794;6.060;2023-04-02T02:24:44;99079.09;;;6.74;100.00
26719;BME280;14326;50.794;6.060;2023-04-02T02:30:15;99094.09;;;6.75;100.00
26719;BME280;14326;50.794;6.060;2023-04-02T02:33:07;99095.84;;;6.74;100.00
26719;BME280;14326;50.794;6.060;2023-04-02T02:35:49;99111.72;;;6.74;100.00
26719;BME280;14326;50.794;6.060;2023-04-02T02:38:52;99108.16;;;6.71;100.00
26719;BME280;14326;50.794;6.060;2023-04-02T02:41:29;99116.78;;;6.62;100.00
26719;BME280;14326;50.794;6.060;2023-04-02T02:44:24;99107.94;;;6.58;100.00
26719;BME280;14326;50.794;6.060;2023-04-02T02:47:03;99115.81;;;6.55;100.00
26719;BME280;14326;50.794;6.060;2023-04-02T02:50:02;99120.25;;;6.58;100.00
26719;BME280;14326;50.794;6.060;2023-04-02T02:52:31;99128.16;;;6.56;100.00
26719;BME280;14326;50.794;6.060;2023-04-02T02:55:05;99134.47;;;6.66;100.00
26719;BME280;14326;50.794;6.060;2023-04-02T02:57:36;99144.94;;;6.60;100.00
26719;BME280;14326;50.794;6.060;2023-04-02T03:00:15;99143.97;;;6.53;100.00
26719;BME280;14326;50.794;6.060;2023-04-02T03:02:59;99158.84;;;6.50;100.00
26719;BME280;14326;50.794;6.060;2023-04-02T03:05:38;99162.34;;;6.49;100.00
26719;BME280;14326;50.794;6.060;2023-04-02T03:08:27;99163.22;;;6.46;100.00
26719;BME280;14326;50.794;6.060;2023-04-02T03:10:59;99172.78;;;6.40;100.00
26719;BME280;14326;50.794;6.060;2023-04-02T03:13:57;99171.88;;;6.39;100.00
26719;BME280;14326;50.794;6.060;2023-04-02T03:16:37;99183.25;;;6.37;100.00
26719;BME280;14326;50.794;6.060;2023-04-02T03:19:27;99186.72;;;6.33;100.00
26719;BME280;14326;50.794;6.060;2023-04-02T03:22:00;99183.22;;;6.34;100.00
26719;BME280;14326;50.794;6.060;2023-04-02T03:24:53;99194.56;;;6.28;100.00
26719;BME280;14326;50.794;6.060;2023-04-02T03:27:52;99206.13;;;6.36;100.00
26719;BME280;14326;50.794;6.060;2023-04-02T03:30:37;99216.63;;;6.30;100.00
26719;BME280;14326;50.794;6.060;2023-04-02T03:33:30;99213.13;;;6.33;100.00
26719;BME280;14326;50.794;6.060;2023-04-02T03:36:13;99220.19;;;6.34;100.00
26719;BME280;14326;50.794;6.060;2023-04-02T03:38:47;99225.31;;;6.26;100.00
26719;BME280;14326;50.794;6.060;2023-04-02T03:41:30;99234.19;;;6.28;100.00
26719;BME280;14326;50.794;6.060;2023-04-02T03:44:37;99227.97;;;6.26;100.00
26719;BME280;14326;50.794;6.060;2023-04-02T03:47:50;99240.25;;;6.24;100.00
26719;BME280;14326;50.794;6.060;2023-04-02T03:53:52;99249.03;;;6.23;100.00
26719;BME280;14326;50.794;6.060;2023-04-02T03:57:13;99248.16;;;6.23;100.00
26719;BME280;14326;50.794;6.060;2023-04-02T03:59:38;99254.38;;;6.26;100.00
26719;BME280;14326;50.794;6.060;2023-04-02T04:02:14;99265.88;;;6.28;100.00
26719;BME280;14326;50.794;6.060;2023-04-02T04:04:45;99270.16;;;6.25;100.00
26719;BME280;14326;50.794;6.060;2023-04-02T04:07:20;99274.44;;;6.16;100.00
26719;BME280;14326;50.794;6.060;2023-04-02T04:09:55;99285.88;;;6.17;100.00
26719;BME280;14326;50.794;6.060;2023-04-02T04:12:28;99284.00;;;6.13;100.00
26719;BME280;14326;50.794;6.060;2023-04-02T04:15:05;99290.03;;;6.06;100.00
26719;BME280;14326;50.794;6.060;2023-04-02T04:17:50;99304.13;;;6.06;100.00
26719;BME280;14326;50.794;6.060;2023-04-02T04:20:40;99307.47;;;5.98;100.00
26719;BME280;14326;50.794;6.060;2023-04-02T04:23:27;99311.78;;;5.96;100.00
26719;BME280;14326;50.794;6.060;2023-04-02T04:29:30;99330.00;;;5.85;100.00
26719;BME280;14326;50.794;6.060;2023-04-02T04:32:23;99339.47;;;5.75;100.00
26719;BME280;14326;50.794;6.060;2023-04-02T04:34:59;99342.84;;;5.70;100.00
26719;BME280;14326;50.794;6.060;2023-04-02T04:37:46;99348.09;;;5.68;100.00
26719;BME280;14326;50.794;6.060;2023-04-02T04:40:19;99342.59;;;5.59;100.00
26719;BME280;14326;50.794;6.060;2023-04-02T04:43:12;99350.63;;;5.64;100.00
26719;BME280;14326;50.794;6.060;2023-04-02T04:45:56;99354.16;;;5.64;100.00
26719;BME280;14326;50.794;6.060;2023-04-02T04:48:52;99365.47;;;5.60;100.00
26719;BME280;14326;50.794;6.060;2023-04-02T04:54:14;99373.47;;;5.63;100.00
26719;BME280;14326;50.794;6.060;2023-04-02T04:57:03;99371.78;;;5.65;100.00
26719;BME280;14326;50.794;6.060;2023-04-02T04:59:42;99386.97;;;5.75;100.00
26719;BME280;14326;50.794;6.060;2023-04-02T05:02:22;99388.63;;;5.72;100.00
26719;BME280;14326;50.794;6.060;2023-04-02T05:04:54;99398.41;;;5.76;100.00
26719;BME280;14326;50.794;6.060;2023-04-02T05:07:48;99400.97;;;5.73;100.00
26719;BME280;14326;50.794;6.060;2023-04-02T05:10:29;99414.88;;;5.67;100.00
26719;BME280;14326;50.794;6.060;2023-04-02T05:13:00;99422.03;;;5.71;100.00
26719;BME280;14326;50.794;6.060;2023-04-02T05:15:32;99417.53;;;5.67;100.00
26719;BME280;14326;50.794;6.060;2023-04-02T05:18:19;99429.66;;;5.61;100.00
26719;BME280;14326;50.794;6.060;2023-04-02T05:21:10;99434.06;;;5.60;100.00
26719;BME280;14326;50.794;6.060;2023-04-02T05:23:44;99439.25;;;5.57;100.00
26719;BME280;14326;50.794;6.060;2023-04-02T05:26:20;99441.06;;;5.58;100.00
26719;BME280;14326;50.794;6.060;2023-04-02T05:28:53;99442.91;;;5.62;100.00
26719;BME280;14326;50.794;6.060;2023-04-02T05:31:23;99447.97;;;5.53;100.00
26719;BME280;14326;50.794;6.060;2023-04-02T05:33:53;99456.72;;;5.52;100.00
26719;BME280;14326;50.794;6.060;2023-04-02T05:36:23;99465.53;;;5.53;100.00
26719;BME280;14326;50.794;6.060;2023-04-02T05:38:55;99462.00;;;5.54;100.00
26719;BME280;14326;50.794;6.060;2023-04-02T05:41:43;99474.25;;;5.50;100.00
26719;BME280;14326;50.794;6.060;2023-04-02T05:44:24;99476.66;;;5.41;100.00
26719;BME280;14326;50.794;6.060;2023-04-02T05:46:54;99476.50;;;5.36;100.00
26719;BME280;14326;50.794;6.060;2023-04-02T05:49:40;99486.03;;;5.31;100.00
26719;BME280;14326;50.794;6.060;2023-04-02T05:52:29;99486.84;;;5.29;100.00
26719;BME280;14326;50.794;6.060;2023-04-02T05:55:31;99500.78;;;5.25;100.00
26719;BME280;14326;50.794;6.060;2023-04-02T06:01:21;99506.88;;;5.22;100.00
26719;BME280;14326;50.794;6.060;2023-04-02T06:07:07;99522.59;;;5.19;100.00
26719;BME280;14326;50.794;6.060;2023-04-02T06:10:07;99527.03;;;5.20;100.00
26719;BME280;14326;50.794;6.060;2023-04-02T06:15:29;99538.47;;;5.21;100.00
26719;BME280;14326;50.794;6.060;2023-04-02T06:18:13;99552.63;;;5.24;100.00
26719;BME280;14326;50.794;6.060;2023-04-02T06:21:04;99557.81;;;5.21;100.00
26719;BME280;14326;50.794;6.060;2023-04-02T06:26:35;99563.69;;;5.11;100.00
26719;BME280;14326;50.794;6.060;2023-04-02T06:29:07;99569.88;;;5.13;100.00
26719;BME280;14326;50.794;6.060;2023-04-02T06:32:03;99577.84;;;5.15;100.00
26719;BME280;14326;50.794;6.060;2023-04-02T06:34:53;99575.19;;;5.15;100.00
26719;BME280;14326;50.794;6.060;2023-04-02T06:40:38;99600.59;;;5.13;100.00
26719;BME280;14326;50.794;6.060;2023-04-02T06:43:23;99610.31;;;5.14;100.00
26719;BME280;14326;50.794;6.060;2023-04-02T06:46:09;99613.13;;;5.18;100.00
26719;BME280;14326;50.794;6.060;2023-04-02T06:49:20;99620.97;;;5.17;100.00
26719;BME280;14326;50.794;6.060;2023-04-02T06:52:12;99625.41;;;5.19;100.00
26719;BME280;14326;50.794;6.060;2023-04-02T06:55:05;99628.75;;;5.14;100.00
26719;BME280;14326;50.794;6.060;2023-04-02T06:57:46;99634.09;;;5.15;100.00
26719;BME280;14326;50.794;6.060;2023-04-02T07:00:23;99643.69;;;5.13;100.00
26719;BME280;14326;50.794;6.060;2023-04-02T07:03:13;99646.09;;;5.06;100.00
26719;BME280;14326;50.794;6.060;2023-04-02T07:06:15;99652.34;;;5.09;100.00
26719;BME280;14326;50.794;6.060;2023-04-02T07:08:49;99664.75;;;5.12;100.00
26719;BME280;14326;50.794;6.060;2023-04-02T07:11:30;99668.41;;;5.17;100.00
26719;BME280;14326;50.794;6.060;2023-04-02T07:14:40;99673.75;;;5.18;100.00
26719;BME280;14326;50.794;6.060;2023-04-02T07:17:26;99688.38;;;5.09;100.00
26719;BME280;14326;50.794;6.060;2023-04-02T07:20:25;99684.78;;;5.07;100.00
26719;BME280;14326;50.794;6.060;2023-04-02T07:22:55;99695.88;;;4.97;100.00
26719;BME280;14326;50.794;6.060;2023-04-02T07:25:28;99706.38;;;4.95;100.00
26719;BME280;14326;50.794;6.060;2023-04-02T07:27:54;99705.38;;;4.91;100.00
26719;BME280;14326;50.794;6.060;2023-04-02T07:30:22;99713.19;;;4.88;100.00
26719;BME280;14326;50.794;6.060;2023-04-02T07:33:08;99713.09;;;4.85;100.00
26719;BME280;14326;50.794;6.060;2023-04-02T07:35:38;99723.63;;;4.85;100.00
26719;BME280;14326;50.794;6.060;2023-04-02T07:38:04;99725.41;;;4.86;100.00
26719;BME280;14326;50.794;6.060;2023-04-02T07:40:31;99735.75;;;4.80;100.00
26719;BME280;14326;50.794;6.060;2023-04-02T07:42:57;99735.47;;;4.73;100.00
26719;BME280;14326;50.794;6.060;2023-04-02T07:45:28;99744.13;;;4.69;100.00
26719;BME280;14326;50.794;6.060;2023-04-02T07:48:11;99747.59;;;4.68;100.00
26719;BME280;14326;50.794;6.060;2023-04-02T07:50:48;99748.22;;;4.61;100.00
26719;BME280;14326;50.794;6.060;2023-04-02T07:53:29;99752.59;;;4.60;100.00
26719;BME280;14326;50.794;6.060;2023-04-02T07:55:59;99754.47;;;4.63;100.00
26719;BME280;14326;50.794;6.060;2023-04-02T07:58:31;99754.34;;;4.60;100.00
26719;BME280;14326;50.794;6.060;2023-04-02T08:01:00;99759.03;;;4.68;100.00
26719;BME280;14326;50.794;6.060;2023-04-02T08:03:27;99773.31;;;4.75;100.00
26719;BME280;14326;50.794;6.060;2023-04-02T08:05:57;99764.41;;;4.71;100.00
26719;BME280;14326;50.794;6.060;2023-04-02T08:08:45;99785.75;;;4.79;100.00
26719;BME280;14326;50.794;6.060;2023-04-02T08:11:15;99794.28;;;4.72;100.00
26719;BME280;14326;50.794;6.060;2023-04-02T08:13:41;99782.47;;;4.61;100.00
26719;BME280;14326;50.794;6.060;2023-04-02T08:16:16;99780.75;;;4.61;100.00
26719;BME280;14326;50.794;6.060;2023-04-02T08:18:43;99787.59;;;4.56;100.00
26719;BME280;14326;50.794;6.060;2023-04-02T08:21:11;99790.28;;;4.58;100.00
26719;BME280;14326;50.794;6.060;2023-04-02T08:23:55;99798.34;;;4.62;100.00
26719;BME280;14326;50.794;6.060;2023-04-02T08:26:34;99802.94;;;4.68;100.00
26719;BME280;14326;50.794;6.060;2023-04-02T08:29:12;99807.38;;;4.69;100.00
26719;BME280;14326;50.794;6.060;2023-04-02T08:31:54;99820.69;;;4.73;100.00
26719;BME280;14326;50.794;6.060;2023-04-02T08:34:25;99818.66;;;4.65;100.00
26719;BME280;14326;50.794;6.060;2023-04-02T08:36:55;99831.97;;;4.69;100.00
26719;BME280;14326;50.794;6.060;2023-04-02T08:39:22;99836.06;;;4.61;100.00
26719;BME280;14326;50.794;6.060;2023-04-02T08:41:59;99843.81;;;4.57;100.00
26719;BME280;14326;50.794;6.060;2023-04-02T08:44:44;99839.66;;;4.63;100.00
26719;BME280;14326;50.794;6.060;2023-04-02T08:47:37;99860.72;;;4.63;100.00
26719;BME280;14326;50.794;6.060;2023-04-02T08:50:27;99865.31;;;4.69;100.00
26719;BME280;14326;50.794;6.060;2023-04-02T08:53:08;99874.13;;;4.69;100.00
26719;BME280;14326;50.794;6.060;2023-04-02T08:58:56;99879.91;;;4.59;100.00
26719;BME280;14326;50.794;6.060;2023-04-02T09:01:44;99877.28;;;4.59;100.00
26719;BME280;14326;50.794;6.060;2023-04-02T09:04:30;99885.13;;;4.58;100.00
26719;BME280;14326;50.794;6.060;2023-04-02T09:07:13;99893.78;;;4.55;100.00
26719;BME280;14326;50.794;6.060;2023-04-02T09:09:57;99905.16;;;4.54;100.00
26719;BME280;14326;50.794;6.060;2023-04-02T09:12:29;99899.50;;;4.43;100.00
26719;BME280;14326;50.794;6.060;2023-04-02T09:15:28;99903.38;;;4.53;100.00
26719;BME280;14326;50.794;6.060;2023-04-02T09:18:14;99909.66;;;4.57;100.00
26719;BME280;14326;50.794;6.060;2023-04-02T09:24:12;99914.25;;;4.62;100.00
26719;BME280;14326;50.794;6.060;2023-04-02T09:27:03;99916.66;;;4.56;100.00
26719;BME280;14326;50.794;6.060;2023-04-02T09:29:44;99917.78;;;4.63;100.00
26719;BME280;14326;50.794;6.060;2023-04-02T09:32:26;99923.88;;;4.62;100.00
26719;BME280;14326;50.794;6.060;2023-04-02T09:35:07;99929.53;;;4.71;100.00
26719;BME280;14326;50.794;6.060;2023-04-02T09:37:37;99940.81;;;4.68;100.00
26719;BME280;14326;50.794;6.060;2023-04-02T09:40:31;99942.50;;;4.66;100.00
26719;BME280;14326;50.794;6.060;2023-04-02T09:43:22;99945.75;;;4.59;100.00
26719;BME280;14326;50.794;6.060;2023-04-02T09:45:59;99963.34;;;4.60;100.00
26719;BME280;14326;50.794;6.060;2023-04-02T09:48:33;99972.22;;;4.62;100.00
26719;BME280;14326;50.794;6.060;2023-04-02T09:51:28;99978.53;;;4.67;100.00
26719;BME280;14326;50.794;6.060;2023-04-02T09:54:20;99983.66;;;4.63;100.00
26719;BME280;14326;50.794;6.060;2023-04-02T09:57:24;99986.28;;;4.63;100.00
26719;BME280;14326;50.794;6.060;2023-04-02T10:00:17;100001.94;;;4.60;100.00
26719;BME280;14326;50.794;6.060;2023-04-02T10:03:00;99984.91;;;4.50;100.00
26719;BME280;14326;50.794;6.060;2023-04-02T10:05:27;99999.38;;;4.61;100.00
26719;BME280;14326;50.794;6.060;2023-04-02T10:08:17;100006.69;;;4.68;100.00
26719;BME280;14326;50.794;6.060;2023-04-02T10:10:54;100014.84;;;4.74;100.00
26719;BME280;14326;50.794;6.060;2023-04-02T10:13:56;100014.84;;;4.74;100.00
26719;BME280;14326;50.794;6.060;2023-04-02T10:16:26;100014.91;;;4.76;100.00
26719;BME280;14326;50.794;6.060;2023-04-02T10:19:18;100021.75;;;4.72;100.00
26719;BME280;14326;50.794;6.060;2023-04-02T10:22:13;100025.47;;;4.77;100.00
26719;BME280;14326;50.794;6.060;2023-04-02T10:25:04;100030.13;;;4.83;100.00
26719;BME280;14326;50.794;6.060;2023-04-02T10:27:45;100033.81;;;4.88;100.00
26719;BME280;14326;50.794;6.060;2023-04-02T10:30:19;100041.75;;;4.89;100.00
26719;BME280;14326;50.794;6.060;2023-04-02T10:33:23;100052.28;;;4.89;100.00
26719;BME280;14326;50.794;6.060;2023-04-02T10:36:21;100051.47;;;4.90;100.00
26719;BME280;14326;50.794;6.060;2023-04-02T10:39:08;100054.84;;;4.86;100.00
26719;BME280;14326;50.794;6.060;2023-04-02T10:41:59;100063.72;;;4.88;100.00
26719;BME280;14326;50.794;6.060;2023-04-02T10:44:45;100057.63;;;4.91;100.00
26719;BME280;14326;50.794;6.060;2023-04-02T10:47:35;100059.59;;;4.97;100.00
26719;BME280;14326;50.794;6.060;2023-04-02T10:50:22;100063.38;;;5.03;100.00
26719;BME280;14326;50.794;6.060;2023-04-02T10:52:56;100062.63;;;5.06;100.00
26719;BME280;14326;50.794;6.060;2023-04-02T10:55:26;100074.91;;;5.05;100.00
26719;BME280;14326;50.794;6.060;2023-04-02T10:57:58;100074.00;;;5.05;100.00
26719;BME280;14326;50.794;6.060;2023-04-02T11:00:32;100076.63;;;5.05;100.00
26719;BME280;14326;50.794;6.060;2023-04-02T11:03:21;100083.69;;;5.06;100.00
26719;BME280;14326;50.794;6.060;2023-04-02T11:06:21;100083.06;;;5.13;100.00
26719;BME280;14326;50.794;6.060;2023-04-02T11:09:06;100087.72;;;5.18;100.00
26719;BME280;14326;50.794;6.060;2023-04-02T11:11:49;100090.44;;;5.21;100.00
26719;BME280;14326;50.794;6.060;2023-04-02T11:14:20;100095.19;;;5.30;100.00
26719;BME280;14326;50.794;6.060;2023-04-02T11:16:49;100101.91;;;5.22;100.00
26719;BME280;14326;50.794;6.060;2023-04-02T11:19:24;100101.16;;;5.26;100.00
26719;BME280;14326;50.794;6.060;2023-04-02T11:22:12;100102.97;;;5.27;100.00
26719;BME280;14326;50.794;6.060;2023-04-02T11:24:55;100118.72;;;5.25;100.00
26719;BME280;14326;50.794;6.060;2023-04-02T11:27:47;100115.38;;;5.07;100.00
26719;BME280;14326;50.794;6.060;2023-04-02T11:30:26;100114.06;;;5.18;100.00
26719;BME280;14326;50.794;6.060;2023-04-02T11:39:49;100128.44;;;5.26;100.00
26719;BME280;14326;50.794;6.060;2023-04-02T11:42:28;100136.28;;;5.25;100.00
26719;BME280;14326;50.794;6.060;2023-04-02T11:51:10;100152.06;;;5.23;100.00
26719;BME280;14326;50.794;6.060;2023-04-02T11:54:19;100156.72;;;5.30;100.00
26719;BME280;14326;50.794;6.060;2023-04-02T11:57:14;100155.84;;;5.30;100.00
26719;BME280;14326;50.794;6.060;2023-04-02T12:00:10;100157.84;;;5.37;100.00
26719;BME280;14326;50.794;6.060;2023-04-02T12:02:55;100165.34;;;5.49;100.00
26719;BME280;14326;50.794;6.060;2023-04-02T12:05:30;100165.31;;;5.47;100.00
26719;BME280;14326;50.794;6.060;2023-04-02T12:08:10;100157.88;;;5.61;100.00
26719;BME280;14326;50.794;6.060;2023-04-02T12:10:52;100162.72;;;5.72;100.00
26719;BME280;14326;50.794;6.060;2023-04-02T12:16:20;100165.19;;;5.68;100.00
26719;BME280;14326;50.794;6.060;2023-04-02T12:18:50;100164.41;;;5.70;100.00
26719;BME280;14326;50.794;6.060;2023-04-02T12:21:23;100173.63;;;5.82;100.00
26719;BME280;14326;50.794;6.060;2023-04-02T12:23:53;100175.78;;;5.92;100.00
26719;BME280;14326;50.794;6.060;2023-04-02T12:26:32;100180.53;;;6.00;100.00
26719;BME280;14326;50.794;6.060;2023-04-02T12:29:22;100187.13;;;5.89;100.00
26719;BME280;14326;50.794;6.060;2023-04-02T12:32:25;100189.88;;;5.92;100.00
26719;BME280;14326;50.794;6.060;2023-04-02T12:35:02;100191.63;;;5.92;100.00
26719;BME280;14326;50.794;6.060;2023-04-02T12:37:54;100195.09;;;5.91;100.00
26719;BME280;14326;50.794;6.060;2023-04-02T12:40:21;100200.38;;;5.91;100.00
26719;BME280;14326;50.794;6.060;2023-04-02T12:42:57;100201.56;;;5.99;100.00
26719;BME280;14326;50.794;6.060;2023-04-02T12:45:26;100200.00;;;6.04;100.00
26719;BME280;14326;50.794;6.060;2023-04-02T12:48:17;100212.19;;;6.00;100.00
26719;BME280;14326;50.794;6.060;2023-04-02T12:50:50;100215.78;;;6.02;100.00
26719;BME280;14326;50.794;6.060;2023-04-02T12:53:23;100216.34;;;5.94;100.00
26719;BME280;14326;50.794;6.060;2023-04-02T12:55:53;100218.25;;;5.98;100.00
26719;BME280;14326;50.794;6.060;2023-04-02T12:58:25;100222.53;;;5.94;100.00
26719;BME280;14326;50.794;6.060;2023-04-02T13:01:11;100219.09;;;5.97;100.00
26719;BME280;14326;50.794;6.060;2023-04-02T13:03:59;100211.06;;;5.94;100.00
26719;BME280;14326;50.794;6.060;2023-04-02T13:06:36;100219.81;;;5.93;100.00
26719;BME280;14326;50.794;6.060;2023-04-02T13:09:05;100213.03;;;5.99;100.00
26719;BME280;14326;50.794;6.060;2023-04-02T13:11:41;100221.34;;;6.10;100.00
26719;BME280;14326;50.794;6.060;2023-04-02T13:14:17;100219.59;;;6.10;100.00
26719;BME280;14326;50.794;6.060;2023-04-02T13:17:02;100225.94;;;6.15;100.00
26719;BME280;14326;50.794;6.060;2023-04-02T13:22:28;100236.75;;;5.98;100.00
26719;BME280;14326;50.794;6.060;2023-04-02T13:24:55;100244.75;;;6.01;100.00
26719;BME280;14326;50.794;6.060;2023-04-02T13:27:22;100243.09;;;6.03;100.00
26719;BME280;14326;50.794;6.060;2023-04-02T13:29:51;100243.00;;;6.01;100.00
26719;BME280;14326;50.794;6.060;2023-04-02T13:32:23;100253.66;;;6.03;100.00
26719;BME280;14326;50.794;6.060;2023-04-02T13:34:53;100245.88;;;6.07;100.00
26719;BME280;14326;50.794;6.060;2023-04-02T13:37:27;100249.56;;;6.11;100.00
26719;BME280;14326;50.794;6.060;2023-04-02T13:39:54;100249.63;;;6.12;100.00
26719;BME280;14326;50.794;6.060;2023-04-02T13:42:31;100255.91;;;6.16;100.00
26719;BME280;14326;50.794;6.060;2023-04-02T13:45:17;100258.09;;;6.04;100.00
26719;BME280;14326;50.794;6.060;2023-04-02T13:47:46;100259.16;;;6.09;100.00
26719;BME280;14326;50.794;6.060;2023-04-02T13:50:19;100262.41;;;6.02;100.00
26719;BME280;14326;50.794;6.060;2023-04-02T13:52:50;100254.78;;;6.09;100.00
26719;BME280;14326;50.794;6.060;2023-04-02T13:55:18;100271.81;;;6.18;100.00
26719;BME280;14326;50.794;6.060;2023-04-02T13:57:57;100276.03;;;6.12;100.00
26719;BME280;14326;50.794;6.060;2023-04-02T14:00:40;100284.88;;;6.14;100.00
26719;BME280;14326;50.794;6.060;2023-04-02T14:03:21;100290.91;;;6.10;100.00
26719;BME280;14326;50.794;6.060;2023-04-02T14:06:14;100295.81;;;6.01;100.00
26719;BME280;14326;50.794;6.060;2023-04-02T14:08:58;100289.38;;;5.93;100.00
26719;BME280;14326;50.794;6.060;2023-04-02T14:11:37;100299.03;;;5.93;100.00
26719;BME280;14326;50.794;6.060;2023-04-02T14:14:22;100294.94;;;6.01;100.00
26719;BME280;14326;50.794;6.060;2023-04-02T14:17:04;100295.66;;;5.97;100.00
26719;BME280;14326;50.794;6.060;2023-04-02T14:20:03;100301.91;;;5.99;100.00
26719;BME280;14326;50.794;6.060;2023-04-02T14:22:57;100306.59;;;6.06;100.00
26719;BME280;14326;50.794;6.060;2023-04-02T14:25:40;100313.72;;;6.08;100.00
26719;BME280;14326;50.794;6.060;2023-04-02T14:28:29;100314.28;;;6.00;100.00
26719;BME280;14326;50.794;6.060;2023-04-02T14:31:09;100309.09;;;6.03;100.00
26719;BME280;14326;50.794;6.060;2023-04-02T14:33:48;100317.31;;;6.10;100.00
26719;BME280;14326;50.794;6.060;2023-04-02T14:39:35;100316.16;;;6.26;100.00
26719;BME280;14326;50.794;6.060;2023-04-02T14:42:12;100322.31;;;6.27;100.00
26719;BME280;14326;50.794;6.060;2023-04-02T14:44:54;100329.97;;;6.19;100.00
26719;BME280;14326;50.794;6.060;2023-04-02T14:47:29;100325.41;;;6.15;100.00
26719;BME280;14326;50.794;6.060;2023-04-02T14:50:18;100329.72;;;6.13;100.00
26719;BME280;14326;50.794;6.060;2023-04-02T14:52:59;100330.34;;;6.06;99.04
26719;BME280;14326;50.794;6.060;2023-04-02T14:55:46;100330.34;;;6.06;100.00
26719;BME280;14326;50.794;6.060;2023-04-02T14:58:24;100339.03;;;6.03;99.70
26719;BME280;14326;50.794;6.060;2023-04-02T15:01:09;100336.34;;;6.02;99.32
26719;BME280;14326;50.794;6.060;2023-04-02T15:03:51;100340.84;;;6.04;98.16
26719;BME280;14326;50.794;6.060;2023-04-02T15:06:22;100352.56;;;6.11;98.42